x

Eel River - 17nm Wsw Of Eureka, Ca (46022) Wave Buoy

6:50pm - Fri 24th Oct 2014 All times are PDT. -7 hours from GMT.

  • Sig Wave height 8.9ft
  • Swell Direction
  • Peak Period 7s
  • Average Period 6s
  • Wind
    29mph, 38mph gusts
  • Sea Temp 59°f
  • Air Temp 63°f
  • Sea Pressure 1005.3mb
  • Eel River - 17nm Wsw Of Eureka, Ca
  • Eel River - 17nm Wsw Of Eureka, Ca

More Historic Weather Station data

Upgrade to MSW Pro to gain access to the past 30 days of data for over 8000 Wavebouys and Weather Stations around the globe.

Join Pro

Comparision Forecast

View Surf forecast
   
Fri 10/24 6:50pm 9ft 7s 6s 29 38 mph 1005.3mb 59f 63f
5:50pm 8.5ft 7s 6s 31 40 mph 1005.7mb 58f 63f
4:50pm 9ft 11s 6s 29 34 mph 1006.1mb 58f 62f
3:50pm 8ft 11s 6s 31 38 mph 1006.8mb 58f 62f
2:50pm 8ft 13s 6s 29 34 mph 1007.6mb 58f 62f
1:50pm 7ft 12s 6s 29 34 mph 1008.3mb 58f 63f
12:50pm 8ft 11s 7s 27 34 mph 1009.1mb 58f 63f
11:50am 7ft 11s 6s 27 34 mph 1009.5mb 58f 62f
10:50am 7.5ft 11s 6s 20 25 mph 1010.1mb 58f 62f
9:50am 6ft 12s 8s 27 34 mph 1009.8mb 58f 62f
8:50am 7.5ft 12s 9s 11 16 mph 1009.9mb 58f 58f
7:50am 7ft 11s 8s 11 16 mph 1010.4mb 58f 57f
6:50am 8ft 12s 9s 16 18 mph 1011.5mb 58f 57f
5:50am 8.5ft 11s 9s 16 18 mph 1012.2mb 58f 57f
4:50am 9ft 12s 9s 11 16 mph 1013.3mb 58f 56f
3:50am 9ft 12s 9s 11 16 mph 1014mb 58f 57f
2:50am 10ft 12s 9s 13 20 mph 1014.5mb 58f 58f
1:50am 9ft 11s 9s 2 4 mph 1015.2mb 58f 58f
12:50am 10ft 12s 9s 9 11 mph 1015.3mb 58f 58f
Thu 10/23 11:50pm 9.5ft 11s 9s 13 18 mph 1015.2mb 58f 59f
10:50pm 9ft 12s 9s 11 16 mph 1015.4mb 58f 60f
9:50pm 8.5ft 11s 9s 7 11 mph 1015.8mb 59f 60f
8:50pm 9.5ft 12s 9s 4 7 mph 1015.9mb 60f 61f
7:50pm 8ft 12s 8s 2 4 mph 1015.9mb 60f 60f
6:50pm 10ft 12s 9s 2 4 mph 1015.8mb 60f 60f
5:50pm 10ft 12s 9s 7 9 mph 1015.5mb 60f 60f
4:50pm 10ft 12s 9s 2 4 mph 1015.6mb 60f 60f
3:50pm 10.5ft 13s 8s 7 9 mph 1015.4mb 59f 60f
2:50pm 11ft 13s 9s 2 4 mph 1015.8mb 59f 60f
1:50pm 11.5ft 12s 9s 4 9 mph 1016.6mb 59f 60f
12:50pm 12ft 13s 9s 7
mph
1016.6mb 59f 60f
11:50am 11ft 12s 9s 4 7 mph 1016mb 59f 60f
10:50am 13ft 13s 9s 4 7 mph 1015.3mb 59f 59f
9:50am 11ft 13s 9s 7 9 mph 1014.6mb 59f 59f
8:50am 11ft 13s 8s 16 20 mph 1013.6mb 59f 61f
7:50am 11ft 13s 8s 20 27 mph 1012.7mb 59f 61f
6:50am 11ft 14s 8s 25 29 mph 1012.2mb 60f 62f
5:50am 11.5ft 11s 8s 25 31 mph 1012.4mb 60f 62f
4:50am 11.5ft 13s 8s 22 29 mph 1012.3mb 60f 61f
3:50am 12.5ft 13s 8s 27 34 mph 1011.6mb 59f 61f
2:50am 11ft 13s 7s 25 31 mph 1012.2mb 58f 60f
1:50am 12ft 14s 8s 27 31 mph 1012.5mb 58f 60f
12:50am 12ft 14s 8s 27 36 mph 1013.4mb 58f 60f
Wed 10/22 11:50pm 13ft 14s 8s 25 31 mph 1013mb 58f 61f
10:50pm 12ft 14s 8s 27 34 mph 1013.6mb 58f 61f
9:50pm 13ft 15s 8s 29 36 mph 1012.6mb 58f 61f
8:50pm 13.5ft 15s 9s 31 36 mph 1013mb 58f 61f
7:50pm 13.5ft 14s 9s 25 31 mph 1013.5mb 58f 61f
6:50pm 12ft 15s 8s 29 36 mph 1012.4mb 59f 61f
5:50pm 12ft 15s 8s 27 34 mph 1013.4mb 59f 61f
4:50pm 13ft 13s 8s 29 34 mph 1013.5mb 59f 61f
3:50pm 12.5ft 13s 8s 27 34 mph 1013.9mb 59f 61f
2:50pm 13.5ft 14s 9s 27 34 mph 1014mb 59f 61f
1:50pm 12ft 12s 8s 29 36 mph 1014.2mb 58f 61f
12:50pm 11ft 11s 8s 27 34 mph 1014.7mb 58f 61f
11:50am 10ft 11s 7s 25 27 mph 1015mb 59f 61f
10:50am 10ft 12s 8s 22 29 mph 1015mb 59f 61f
9:50am 9.5ft 11s 8s 22 27 mph 1015.1mb 59f 60f
8:50am 9.5ft 13s 8s 20 25 mph 1015.3mb 59f 60f
7:50am 10ft 12s 8s 20 22 mph 1014.9mb 59f 60f
6:50am 9ft 13s 8s 20 22 mph 1015.1mb 59f 60f
5:50am 8ft 12s 8s 20 25 mph 1015mb 59f 60f
4:50am 9ft 13s 8s 20 25 mph 1015.3mb 59f 61f
3:50am 9ft 12s 8s 20 25 mph 1015.4mb 59f 61f
2:50am 9.5ft 12s 8s 20 25 mph 1015.8mb 59f 61f
1:50am 9.5ft 12s 8s 18 22 mph 1015.9mb 59f 60f
12:50am 11ft 13s 9s 20 25 mph 1015.7mb 59f 60f
Tue 10/21 11:50pm 10.5ft 13s 9s 16 20 mph 1016.3mb 59f 60f
10:50pm 12.5ft 13s 10s 18 22 mph 1016mb 59f 60f
9:50pm 9.5ft 13s 9s 16 18 mph 1016.3mb 59f 60f
8:50pm 10ft 14s 9s 18 20 mph 1016.2mb 59f 60f
7:50pm 10ft 13s 9s 16 20 mph 1016.6mb 59f 60f
6:50pm 11.5ft 14s 10s 16 18 mph 1016.9mb 59f 60f
5:50pm 9ft 14s 9s 18 20 mph 1017.1mb 59f 60f
4:50pm 9ft 13s 9s 16 20 mph 1017.6mb 60f 60f
3:50pm 10.5ft 15s 10s 16 20 mph 1018.1mb 60f 60f
2:50pm 11ft 15s 10s 16 18 mph 1018.2mb 60f 60f
1:50pm 10ft 15s 9s 16 20 mph 1018.6mb 59f 60f
12:50pm 11.5ft 14s 9s 13 18 mph 1019.2mb 58f 59f
11:50am 13ft 14s 10s 16 18 mph 1019.2mb 58f 59f
10:50am 13.5ft 14s 10s 11 16 mph 1019.5mb 58f 58f
9:50am 14.5ft 15s 10s 9 13 mph 1019.6mb 58f 58f
8:50am 15ft 14s 10s 11 16 mph 1019.1mb 58f 57f
7:50am 14ft 14s 10s 11 16 mph 1019.1mb 58f 57f
6:50am 15.5ft 15s 11s 13 18 mph 1018.6mb 58f 57f
5:50am 14ft 15s 11s 13 18 mph 1018.5mb 58f 57f
4:50am 14.5ft 15s 11s 11 16 mph 1018.2mb 58f 58f
3:50am 15.5ft 15s 11s 13 16 mph 1017.8mb 57f 57f